Time;durP1;ratioP1;P1;durP2;ratioP2;P2;SDS_P1;SDS_P2;PMS_P1;PMS_P2;Temp;Humidity;BMP_temperature;BMP_pressure;BME280_temperature;BME280_humidity;BME280_pressure;Samples;Min_cycle;Max_cycle;Signal;HPM_P1;HPM_P2
2022/03/21 00:01:07;;;;;;;0.10;0.10;;;9.50;51.70;;;;;;5010663;28;20030;-65
2022/03/21 00:03:33;;;;;;;0.22;0.22;;;9.30;52.60;;;;;;5010303;28;20038;-66
2022/03/21 00:05:59;;;;;;;0.15;0.15;;;9.40;53.30;;;;;;5010545;28;20627;-66
2022/03/21 00:08:25;;;;;;;0.10;0.10;;;9.20;53.70;;;;;;5010698;28;20030;-65
2022/03/21 00:10:54;;;;;;;0.10;0.10;;;9.10;53.40;;;;;;5010716;28;20100;-66
2022/03/21 00:13:20;;;;;;;0.10;0.10;;;9.10;53.40;;;;;;5010340;28;20049;-66
2022/03/21 00:15:48;;;;;;;6.50;3.40;;;9.10;53.90;;;;;;5009410;28;20455;-66
2022/03/21 00:18:14;;;;;;;2.13;2.03;;;9.00;53.60;;;;;;5011059;28;20029;-65
2022/03/21 00:20:42;;;;;;;0.10;0.10;;;8.90;53.90;;;;;;5010181;28;20056;-66
2022/03/21 00:23:08;;;;;;;0.10;0.10;;;8.90;53.80;;;;;;5009875;28;20058;-68
2022/03/21 00:25:33;;;;;;;1.48;1.38;;;8.90;54.20;;;;;;5010493;28;20500;-65
2022/03/21 00:27:59;;;;;;;0.55;0.55;;;8.70;55.10;;;;;;5010679;28;20105;-66
2022/03/21 00:30:26;;;;;;;0.10;0.10;;;8.70;54.70;;;;;;5010261;28;20498;-67
2022/03/21 00:32:53;;;;;;;0.52;0.50;;;8.70;54.80;;;;;;5010184;28;20076;-66
2022/03/21 00:35:19;;;;;;;1.38;1.27;;;8.60;54.60;;;;;;5010542;28;20060;-65
2022/03/21 00:37:45;;;;;;;0.20;0.20;;;8.50;55.00;;;;;;5009817;28;20321;-66
2022/03/21 00:40:13;;;;;;;0.10;0.10;;;8.50;55.40;;;;;;5010024;28;20026;-67
2022/03/21 00:42:41;;;;;;;1.15;0.98;;;8.40;55.50;;;;;;5009076;28;20044;-65
2022/03/21 00:45:10;;;;;;;0.10;0.10;;;8.40;55.70;;;;;;5025505;28;20026;-65
2022/03/21 00:47:36;;;;;;;0.10;0.10;;;8.40;55.80;;;;;;5009735;28;20030;-66
2022/03/21 00:50:04;;;;;;;0.10;0.10;;;8.40;55.90;;;;;;5010530;28;20095;-67
2022/03/21 00:52:30;;;;;;;0.65;0.65;;;8.40;56.10;;;;;;5009993;28;20037;-66
2022/03/21 00:54:56;;;;;;;0.10;0.10;;;8.30;56.10;;;;;;5009635;28;20058;-65
2022/03/21 00:57:22;;;;;;;0.10;0.10;;;8.40;56.50;;;;;;5009624;28;20030;-65
2022/03/21 00:59:48;;;;;;;2.40;2.30;;;8.30;57.00;;;;;;5010216;28;20022;-69
2022/03/21 01:02:13;;;;;;;0.10;0.10;;;8.30;57.40;;;;;;5013634;28;20506;-66
2022/03/21 01:04:39;;;;;;;0.10;0.10;;;8.30;57.50;;;;;;5015963;28;20022;-67
2022/03/21 01:07:05;;;;;;;1.85;1.75;;;8.30;57.30;;;;;;5019890;28;20105;-67
2022/03/21 01:09:31;;;;;;;1.85;1.50;;;8.20;57.70;;;;;;5014375;28;20435;-65
2022/03/21 01:11:57;;;;;;;0.10;0.10;;;8.10;58.20;;;;;;5009482;28;20034;-66
2022/03/21 01:14:22;;;;;;;0.45;0.45;;;8.10;58.50;;;;;;5008911;28;20023;-66
2022/03/21 01:16:50;;;;;;;0.15;0.15;;;8.10;58.30;;;;;;5008754;28;20030;-66
2022/03/21 01:19:16;;;;;;;0.35;0.35;;;8.10;58.10;;;;;;5010312;28;20077;-66
2022/03/21 01:21:41;;;;;;;0.20;0.20;;;8.10;57.90;;;;;;5009710;28;20419;-65
2022/03/21 01:24:07;;;;;;;0.32;0.32;;;8.10;57.70;;;;;;5009768;28;20472;-65
2022/03/21 01:26:32;;;;;;;0.10;0.10;;;8.10;58.30;;;;;;5010315;28;20121;-65
2022/03/21 01:28:58;;;;;;;0.15;0.15;;;8.20;58.20;;;;;;5009373;28;20365;-65
2022/03/21 01:31:24;;;;;;;0.10;0.10;;;8.20;58.00;;;;;;5009478;28;20055;-65
2022/03/21 01:33:53;;;;;;;0.10;0.10;;;8.20;57.70;;;;;;5009532;28;20484;-65
2022/03/21 01:36:19;;;;;;;1.20;1.20;;;8.30;57.40;;;;;;5010072;28;20048;-64
2022/03/21 01:38:45;;;;;;;0.20;0.20;;;8.30;57.60;;;;;;5009689;28;20022;-65
2022/03/21 01:41:10;;;;;;;0.10;0.10;;;8.20;58.10;;;;;;5009443;28;20421;-66
2022/03/21 01:43:58;;;;;;;1.73;1.35;;;8.20;58.10;;;;;;5009702;28;20030;-65
2022/03/21 01:46:24;;;;;;;0.40;0.40;;;8.20;58.30;;;;;;5009289;28;20029;-66
2022/03/21 01:48:50;;;;;;;0.10;0.10;;;8.20;59.40;;;;;;5009307;28;20498;-65
2022/03/21 01:51:16;;;;;;;0.10;0.10;;;8.10;60.00;;;;;;5009345;28;20026;-67
2022/03/21 01:56:27;;;;;;;0.40;0.40;;;7.90;60.90;;;;;;4992724;28;20157;-65
2022/03/21 01:58:53;;;;;;;0.30;0.30;;;7.90;61.80;;;;;;5011003;28;20044;-67
2022/03/21 02:01:19;;;;;;;0.20;0.20;;;7.80;62.40;;;;;;5011899;28;20033;-66
2022/03/21 02:03:45;;;;;;;0.10;0.10;;;7.80;62.70;;;;;;5011224;28;20030;-66
2022/03/21 02:06:11;;;;;;;1.10;1.10;;;7.70;63.30;;;;;;5011519;28;20026;-66
2022/03/21 02:08:37;;;;;;;0.10;0.10;;;7.70;64.30;;;;;;5013231;28;20499;-66
2022/03/21 02:11:03;;;;;;;0.10;0.10;;;7.70;65.00;;;;;;5023219;28;20026;-66
2022/03/21 02:13:28;;;;;;;0.20;0.20;;;7.60;65.60;;;;;;5018225;28;20444;-65
2022/03/21 02:15:54;;;;;;;1.10;1.10;;;7.60;66.00;;;;;;5011310;28;20033;-65
2022/03/21 02:18:20;;;;;;;0.10;0.10;;;7.70;66.30;;;;;;5011790;28;20022;-65
2022/03/21 02:20:47;;;;;;;0.10;0.10;;;7.70;65.70;;;;;;5011313;28;20109;-65
2022/03/21 02:23:18;;;;;;;0.10;0.10;;;7.70;65.60;;;;;;5011008;28;20093;-66
2022/03/21 02:25:44;;;;;;;1.73;1.63;;;7.70;66.00;;;;;;5011624;28;20022;-66
2022/03/21 02:28:15;;;;;;;1.42;1.33;;;7.90;66.90;;;;;;5011861;28;20026;-66
2022/03/21 02:30:46;;;;;;;0.10;0.10;;;7.70;66.60;;;;;;5010932;28;20065;-65
2022/03/21 02:33:14;;;;;;;1.58;1.48;;;7.70;67.20;;;;;;4992178;28;20030;-66
2022/03/21 02:35:44;;;;;;;0.10;0.10;;;7.50;66.80;;;;;;4994885;28;20058;-66
2022/03/21 02:38:12;;;;;;;1.05;1.05;;;7.40;67.90;;;;;;5010839;28;20029;-66
2022/03/21 02:40:38;;;;;;;0.10;0.10;;;7.50;70.20;;;;;;5011498;28;20081;-65
2022/03/21 02:43:04;;;;;;;6.55;3.13;;;7.50;70.80;;;;;;5011491;28;20044;-66
2022/03/21 02:45:30;;;;;;;3.53;2.05;;;7.60;69.90;;;;;;5011558;28;20026;-66
2022/03/21 02:47:55;;;;;;;1.65;1.55;;;7.50;68.00;;;;;;5011034;28;20045;-66
2022/03/21 02:50:40;;;;;;;0.30;0.30;;;7.40;69.50;;;;;;5009041;28;20093;-67
2022/03/21 02:53:09;;;;;;;0.10;0.10;;;7.30;71.30;;;;;;4971903;28;1132128;-66
2022/03/21 02:55:35;;;;;;;0.10;0.10;;;7.30;74.50;;;;;;5010798;28;20030;-65
2022/03/21 02:58:02;;;;;;;0.10;0.10;;;7.40;76.90;;;;;;5012009;28;20449;-66
2022/03/21 03:00:28;;;;;;;0.10;0.10;;;7.30;78.40;;;;;;5011855;28;20124;-66
2022/03/21 03:02:54;;;;;;;12.27;3.60;;;7.30;78.70;;;;;;5011754;28;20061;-66
2022/03/21 03:05:20;;;;;;;0.10;0.10;;;7.30;80.50;;;;;;5010754;28;20030;-66
2022/03/21 03:07:46;;;;;;;0.98;0.98;;;7.20;82.40;;;;;;5011558;28;20084;-65
2022/03/21 03:10:12;;;;;;;0.10;0.10;;;7.20;85.50;;;;;;5011422;28;20029;-66
2022/03/21 03:12:37;;;;;;;0.52;0.52;;;7.20;86.20;;;;;;5011421;28;20042;-66
2022/03/21 03:15:04;;;;;;;0.50;0.50;;;7.20;86.60;;;;;;5011676;28;20034;-66
2022/03/21 03:17:29;;;;;;;0.98;0.98;;;7.30;87.60;;;;;;5021916;28;20087;-66
2022/03/21 03:19:55;;;;;;;0.10;0.10;;;7.30;87.60;;;;;;5022202;28;20029;-66
2022/03/21 03:22:23;;;;;;;0.20;0.20;;;7.30;87.70;;;;;;5016536;28;20112;-66
2022/03/21 03:24:50;;;;;;;0.22;0.22;;;7.30;85.30;;;;;;5010485;28;20085;-66
2022/03/21 03:27:15;;;;;;;1.05;1.05;;;7.30;86.70;;;;;;5007868;28;20080;-66
2022/03/21 03:29:41;;;;;;;0.10;0.10;;;7.30;88.00;;;;;;5006440;28;20431;-67
2022/03/21 03:32:07;;;;;;;0.10;0.10;;;7.20;87.40;;;;;;5000979;28;20026;-65
2022/03/21 03:34:33;;;;;;;0.10;0.10;;;7.30;87.20;;;;;;5004946;28;20467;-66
2022/03/21 03:36:59;;;;;;;3.33;3.13;;;7.20;87.90;;;;;;5003430;28;20037;-65
2022/03/21 03:39:26;;;;;;;0.32;0.32;;;7.20;87.80;;;;;;5004000;28;20038;-66
2022/03/21 03:41:52;;;;;;;0.10;0.10;;;7.10;90.10;;;;;;5002928;28;20030;-67
2022/03/21 03:44:18;;;;;;;2.63;2.20;;;7.10;91.00;;;;;;5006393;28;20033;-66
2022/03/21 03:46:44;;;;;;;1.00;1.00;;;7.00;91.90;;;;;;5010153;28;20065;-66
2022/03/21 03:49:10;;;;;;;;;;;7.00;93.30;;;;;;5004723;28;20061;-65
2022/03/21 03:51:35;;;;;;;;;;;7.00;93.30;;;;;;5007064;28;20074;-65
2022/03/21 03:54:01;;;;;;;1.40;1.40;;;7.00;93.00;;;;;;5003031;28;19909;-66
2022/03/21 03:56:27;;;;;;;0.28;0.28;;;7.00;92.00;;;;;;4999400;28;20014;-65
2022/03/21 03:58:52;;;;;;;0.10;0.10;;;6.90;90.80;;;;;;5005086;28;20391;-67
2022/03/21 04:01:18;;;;;;;0.10;0.10;;;6.80;91.60;;;;;;5007314;28;20755;-66
2022/03/21 04:03:46;;;;;;;0.10;0.10;;;6.80;92.10;;;;;;5005299;28;20177;-65
2022/03/21 04:06:20;;;;;;;1.17;1.13;;;6.80;93.50;;;;;;5003050;28;20079;-66
2022/03/21 04:08:46;;;;;;;;;;;6.90;92.50;;;;;;4998957;28;20037;-65
2022/03/21 04:11:12;;;;;;;0.10;0.10;;;6.90;93.00;;;;;;5005347;28;20418;-66
2022/03/21 04:13:38;;;;;;;0.10;0.10;;;6.90;92.70;;;;;;5006186;28;20065;-66
2022/03/21 04:16:05;;;;;;;0.10;0.10;;;6.90;91.80;;;;;;5004532;28;20069;-66
2022/03/21 04:18:30;;;;;;;0.10;0.10;;;6.90;92.00;;;;;;5008450;28;20092;-65
2022/03/21 04:20:56;;;;;;;1.05;1.05;;;6.90;92.00;;;;;;5006353;28;20030;-65
2022/03/21 04:23:22;;;;;;;1.75;1.48;;;6.90;93.70;;;;;;5007027;28;20164;-66
2022/03/21 04:25:48;;;;;;;0.10;0.10;;;6.80;95.50;;;;;;5008381;28;20034;-66
2022/03/21 04:28:15;;;;;;;0.13;0.13;;;6.70;96.80;;;;;;5004618;28;20180;-65
2022/03/21 04:30:41;;;;;;;0.20;0.20;;;6.60;98.20;;;;;;4999186;28;20072;-65
2022/03/21 04:33:12;;;;;;;0.40;0.40;;;6.60;98.90;;;;;;5006816;28;20080;-66
2022/03/21 04:35:38;;;;;;;0.10;0.10;;;6.70;99.10;;;;;;5002039;28;20483;-66
2022/03/21 04:38:13;;;;;;;0.20;0.20;;;6.70;98.70;;;;;;5003985;28;20042;-66
2022/03/21 04:40:40;;;;;;;0.38;0.38;;;6.80;98.20;;;;;;5003821;28;20034;-66
2022/03/21 04:43:06;;;;;;;0.75;0.75;;;6.80;98.00;;;;;;5003376;28;20033;-66
2022/03/21 04:45:32;;;;;;;0.10;0.10;;;6.80;98.90;;;;;;5003393;28;20053;-66
2022/03/21 04:47:58;;;;;;;2.42;2.22;;;6.80;99.50;;;;;;4999768;28;20080;-66
2022/03/21 04:50:24;;;;;;;0.30;0.30;;;6.70;99.90;;;;;;5003350;28;20316;-66
2022/03/21 04:52:50;;;;;;;0.10;0.10;;;6.70;99.90;;;;;;5014827;22;20506;-64
2022/03/21 04:55:15;;;;;;;2.33;2.13;;;6.60;99.90;;;;;;5002220;28;20030;-66
2022/03/21 04:57:41;;;;;;;0.10;0.10;;;6.60;99.90;;;;;;5007304;28;20018;-66
2022/03/21 05:00:07;;;;;;;0.10;0.10;;;6.60;99.90;;;;;;4991634;28;20137;-66
2022/03/21 05:02:33;;;;;;;0.10;0.10;;;6.50;99.90;;;;;;5010075;28;20216;-65
2022/03/21 05:04:59;;;;;;;2.17;1.98;;;6.50;99.90;;;;;;5012743;28;20116;-65
2022/03/21 05:07:25;;;;;;;0.10;0.10;;;6.50;99.90;;;;;;5012674;28;20040;-66
2022/03/21 05:09:51;;;;;;;0.52;0.52;;;6.50;99.90;;;;;;5007359;28;20029;-66
2022/03/21 05:12:17;;;;;;;2.63;2.47;;;6.60;99.90;;;;;;5014356;28;20121;-66
2022/03/21 05:14:43;;;;;;;1.88;1.77;;;6.50;99.90;;;;;;5009755;28;20160;-67
2022/03/21 05:17:11;;;;;;;0.57;0.57;;;6.50;99.90;;;;;;5014663;28;20033;-66
2022/03/21 05:19:37;;;;;;;0.30;0.30;;;6.50;99.90;;;;;;5011972;28;20101;-65
2022/03/21 05:22:06;;;;;;;0.47;0.47;;;6.60;99.90;;;;;;5013318;28;20121;-67
2022/03/21 05:35:54;;;;;;;0.10;0.10;;;6.70;99.90;;;;;;5017997;28;20474;-65
2022/03/21 05:38:22;;;;;;;1.97;1.87;;;6.60;97.90;;;;;;5010062;28;20025;-65
2022/03/21 05:40:48;;;;;;;0.10;0.10;;;6.60;94.90;;;;;;5019072;28;20104;-65
2022/03/21 05:43:14;;;;;;;0.15;0.15;;;6.60;92.90;;;;;;5015732;28;20110;-65
2022/03/21 05:45:41;;;;;;;6.45;5.93;;;6.50;92.30;;;;;;5020163;28;20025;-67
2022/03/21 05:50:51;;;;;;;0.20;0.20;;;6.50;92.10;;;;;;5019458;28;20037;-66
2022/03/21 05:53:18;;;;;;;0.10;0.10;;;6.50;91.60;;;;;;5011640;28;20033;-66
2022/03/21 05:55:45;;;;;;;0.10;0.10;;;6.50;90.30;;;;;;5016091;28;20030;-67
2022/03/21 05:58:11;;;;;;;0.15;0.15;;;6.50;90.60;;;;;;5016252;28;20025;-66
2022/03/21 06:00:37;;;;;;;0.82;0.82;;;6.50;90.30;;;;;;5018428;28;20495;-67
2022/03/21 06:03:04;;;;;;;0.68;0.68;;;6.60;89.40;;;;;;5016493;28;20068;-68
2022/03/21 06:05:30;;;;;;;0.77;0.77;;;6.60;88.80;;;;;;5017878;28;20067;-68
2022/03/21 06:07:55;;;;;;;0.10;0.10;;;6.60;88.70;;;;;;5016872;28;20018;-67
2022/03/21 06:10:21;;;;;;;0.55;0.55;;;6.70;88.40;;;;;;5015539;28;20037;-66
2022/03/21 06:12:48;;;;;;;0.90;0.90;;;6.70;88.50;;;;;;5009450;28;20030;-68
2022/03/21 06:15:14;;;;;;;0.10;0.10;;;6.80;89.40;;;;;;5016294;28;20030;-67
2022/03/21 06:17:41;;;;;;;0.25;0.25;;;6.70;90.30;;;;;;5016919;28;20032;-64
2022/03/21 06:20:17;;;;;;;0.20;0.20;;;6.70;88.80;;;;;;5007268;28;20021;-66
2022/03/21 06:22:43;;;;;;;0.90;0.85;;;6.70;89.10;;;;;;5012074;28;20472;-68
2022/03/21 06:25:10;;;;;;;0.38;0.38;;;6.80;89.80;;;;;;5012744;28;20559;-68
2022/03/21 06:27:40;;;;;;;21.10;2.88;;;6.80;88.40;;;;;;5012521;28;20022;-68
2022/03/21 06:30:08;;;;;;;0.10;0.10;;;6.70;88.30;;;;;;4994081;28;20057;-67
2022/03/21 06:32:34;;;;;;;0.32;0.32;;;6.80;86.50;;;;;;4994078;28;20034;-66
2022/03/21 06:35:00;;;;;;;0.90;0.90;;;6.60;85.50;;;;;;5008784;28;20049;-65
2022/03/21 06:37:25;;;;;;;0.20;0.20;;;6.50;86.60;;;;;;5010533;28;20491;-63
2022/03/21 06:39:51;;;;;;;0.10;0.10;;;6.40;87.70;;;;;;5008838;28;20046;-63
2022/03/21 06:42:21;;;;;;;0.98;0.98;;;6.40;88.50;;;;;;5006181;28;20029;-64
2022/03/21 06:44:50;;;;;;;0.10;0.10;;;6.60;90.30;;;;;;5009956;28;20383;-67
2022/03/21 06:47:17;;;;;;;0.17;0.17;;;6.70;90.50;;;;;;5008575;28;20034;-65
2022/03/21 06:49:43;;;;;;;0.10;0.10;;;6.70;90.20;;;;;;5013021;28;20096;-66
2022/03/21 06:52:09;;;;;;;0.10;0.10;;;6.90;90.10;;;;;;5008074;28;20057;-67
2022/03/21 06:54:35;;;;;;;0.10;0.10;;;6.90;90.10;;;;;;5011912;28;20497;-65
2022/03/21 06:57:02;;;;;;;0.25;0.25;;;7.00;89.40;;;;;;5003346;28;20043;-65
2022/03/21 06:59:29;;;;;;;0.10;0.10;;;7.10;90.30;;;;;;5002816;28;20030;-66
2022/03/21 07:01:55;;;;;;;0.10;0.10;;;7.20;89.70;;;;;;5011944;28;20022;-67
2022/03/21 07:04:21;;;;;;;0.10;0.10;;;7.30;89.20;;;;;;5012014;28;20602;-66
2022/03/21 07:06:47;;;;;;;0.10;0.10;;;7.30;89.70;;;;;;5005496;28;20043;-68
2022/03/21 07:09:13;;;;;;;0.10;0.10;;;7.50;87.50;;;;;;5002545;28;20056;-67
2022/03/21 07:11:41;;;;;;;8.77;3.92;;;7.50;88.40;;;;;;5011810;28;20054;-67
2022/03/21 07:14:07;;;;;;;1.20;1.20;;;7.40;87.90;;;;;;5010332;28;20021;-67
2022/03/21 07:16:32;;;;;;;0.10;0.10;;;7.50;88.60;;;;;;5009144;28;20112;-66
2022/03/21 07:18:58;;;;;;;1.00;1.00;;;7.60;87.70;;;;;;5011838;28;20469;-65
2022/03/21 07:21:24;;;;;;;0.20;0.20;;;7.70;88.20;;;;;;5014381;28;20025;-67
2022/03/21 07:23:49;;;;;;;2.33;2.22;;;7.80;86.10;;;;;;5013019;28;20472;-65
2022/03/21 07:26:15;;;;;;;0.10;0.10;;;7.80;84.20;;;;;;5018510;28;20037;-68
2022/03/21 07:28:41;;;;;;;2.20;2.05;;;7.80;85.10;;;;;;5013323;28;20036;-67
2022/03/21 07:31:10;;;;;;;0.10;0.10;;;7.90;84.90;;;;;;5010716;28;20093;-67
2022/03/21 07:33:42;;;;;;;0.45;0.45;;;8.00;85.70;;;;;;5002986;28;20113;-69
2022/03/21 07:36:10;;;;;;;0.93;0.93;;;8.30;85.70;;;;;;5011139;28;20030;-68
2022/03/21 07:38:37;;;;;;;0.20;0.20;;;8.30;84.80;;;;;;5011506;28;20026;-68
2022/03/21 07:41:07;;;;;;;0.10;0.10;;;8.30;81.70;;;;;;4998562;28;20488;-68
2022/03/21 07:43:35;;;;;;;2.30;2.20;;;8.30;81.50;;;;;;4994488;28;20042;-67
2022/03/21 07:48:46;;;;;;;0.40;0.40;;;8.40;80.10;;;;;;5007948;28;20029;-68
2022/03/21 07:51:12;;;;;;;0.52;0.52;;;8.30;79.90;;;;;;5003554;28;20021;-67
2022/03/21 07:53:38;;;;;;;0.20;0.20;;;8.30;79.10;;;;;;5011287;28;20026;-66
2022/03/21 07:56:04;;;;;;;0.10;0.10;;;8.90;79.80;;;;;;5002647;28;20087;-67
2022/03/21 07:58:33;;;;;;;0.10;0.10;;;8.40;78.90;;;;;;5003876;28;20034;-67
2022/03/21 08:01:00;;;;;;;0.10;0.10;;;8.50;78.10;;;;;;5009675;28;20025;-67
2022/03/21 08:03:26;;;;;;;0.10;0.10;;;8.50;77.30;;;;;;5006268;28;20606;-69
2022/03/21 08:05:53;;;;;;;0.10;0.10;;;8.60;77.50;;;;;;5007690;28;20026;-67
2022/03/21 08:08:20;;;;;;;0.10;0.10;;;8.60;76.20;;;;;;5005368;28;20053;-66
2022/03/21 08:10:46;;;;;;;1.48;1.42;;;8.60;75.80;;;;;;5002071;28;20022;-67
2022/03/21 08:13:14;;;;;;;0.30;0.30;;;8.70;76.50;;;;;;5010455;28;20033;-67
2022/03/21 08:15:40;;;;;;;0.80;0.80;;;8.70;76.20;;;;;;5001583;28;20034;-67
2022/03/21 08:18:05;;;;;;;0.20;0.20;;;8.80;76.20;;;;;;5016358;28;20029;-66
2022/03/21 08:20:35;;;;;;;0.10;0.10;;;8.80;75.10;;;;;;5010075;28;20656;-67
2022/03/21 08:23:07;;;;;;;0.40;0.40;;;9.00;76.10;;;;;;5012461;28;20487;-67
2022/03/21 08:25:37;;;;;;;0.10;0.10;;;9.10;74.90;;;;;;5005411;28;20431;-68
2022/03/21 08:28:04;;;;;;;0.20;0.20;;;9.10;73.40;;;;;;5011376;28;20057;-67
2022/03/21 08:30:32;;;;;;;0.25;0.25;;;9.10;74.30;;;;;;5010466;28;20064;-66
2022/03/21 08:32:59;;;;;;;0.22;0.22;;;9.20;73.00;;;;;;5014608;28;20054;-66
2022/03/21 08:35:25;;;;;;;1.88;1.77;;;9.20;72.90;;;;;;5003748;28;20030;-66
2022/03/21 08:37:51;;;;;;;1.75;1.65;;;9.40;73.20;;;;;;5008979;28;20105;-67
2022/03/21 08:40:17;;;;;;;0.10;0.10;;;9.40;72.70;;;;;;5009279;28;20112;-67
2022/03/21 08:42:43;;;;;;;0.10;0.10;;;9.60;73.20;;;;;;5011558;28;20057;-67
2022/03/21 08:45:09;;;;;;;0.10;0.10;;;9.80;73.20;;;;;;5014917;28;20480;-66
2022/03/21 08:47:37;;;;;;;1.33;1.27;;;10.00;71.30;;;;;;5014918;28;20514;-68
2022/03/21 08:50:03;;;;;;;0.10;0.10;;;10.10;70.10;;;;;;5007827;28;20071;-68
2022/03/21 08:52:29;;;;;;;0.10;0.10;;;10.10;69.60;;;;;;5008177;28;20092;-67
2022/03/21 08:54:55;;;;;;;0.20;0.20;;;10.30;69.10;;;;;;5009765;28;20492;-68
2022/03/21 08:57:20;;;;;;;0.10;0.10;;;10.40;69.40;;;;;;5010680;28;20104;-67
2022/03/21 08:59:47;;;;;;;0.10;0.10;;;10.50;69.40;;;;;;5006786;28;20035;-67
2022/03/21 09:02:13;;;;;;;0.10;0.10;;;10.60;68.10;;;;;;5022136;28;20025;-65
2022/03/21 09:04:39;;;;;;;1.02;1.02;;;10.70;68.80;;;;;;5014346;28;20153;-66
2022/03/21 09:07:08;;;;;;;1.13;1.13;;;10.70;67.30;;;;;;5011457;28;20040;-66
2022/03/21 09:09:34;;;;;;;3.03;2.83;;;10.90;66.80;;;;;;5007123;28;20037;-67
2022/03/21 09:12:00;;;;;;;0.10;0.10;;;10.90;66.10;;;;;;5012460;28;20103;-67
2022/03/21 09:14:25;;;;;;;0.30;0.30;;;10.80;65.80;;;;;;5016734;28;20476;-66
2022/03/21 09:16:52;;;;;;;0.10;0.10;;;11.00;66.40;;;;;;5012251;28;20033;-67
2022/03/21 09:19:19;;;;;;;0.10;0.10;;;11.10;65.10;;;;;;5011647;28;20088;-67
2022/03/21 09:21:45;;;;;;;0.52;0.52;;;11.10;64.80;;;;;;5012737;28;20022;-66
2022/03/21 09:24:11;;;;;;;0.10;0.10;;;11.30;65.20;;;;;;5011928;28;20045;-69
2022/03/21 09:26:37;;;;;;;2.88;2.63;;;11.10;64.80;;;;;;5005013;28;20383;-68
2022/03/21 09:29:03;;;;;;;0.10;0.10;;;11.10;65.30;;;;;;5020381;28;20029;-65
2022/03/21 09:31:29;;;;;;;1.60;1.55;;;11.20;65.10;;;;;;5014127;28;20087;-67
2022/03/21 09:33:55;;;;;;;0.10;0.10;;;11.30;64.60;;;;;;5010059;28;20041;-66
2022/03/21 09:36:21;;;;;;;0.10;0.10;;;11.40;64.80;;;;;;5007457;28;20396;-66
2022/03/21 09:38:47;;;;;;;0.15;0.15;;;11.50;64.60;;;;;;5013811;28;20038;-67
2022/03/21 09:41:13;;;;;;;0.55;0.55;;;11.60;63.60;;;;;;5013876;28;20044;-67
2022/03/21 09:43:40;;;;;;;0.52;0.50;;;11.70;63.60;;;;;;5012137;28;20041;-67
2022/03/21 09:46:07;;;;;;;0.30;0.30;;;11.80;63.70;;;;;;5013472;28;20045;-68
2022/03/21 09:48:34;;;;;;;0.43;0.43;;;11.80;63.20;;;;;;5013704;28;20027;-66
2022/03/21 09:51:03;;;;;;;0.20;0.20;;;12.00;63.80;;;;;;5013889;28;20065;-66
2022/03/21 09:53:29;;;;;;;9.43;6.03;;;12.30;63.80;;;;;;5012210;28;20132;-67
2022/03/21 09:55:56;;;;;;;0.30;0.30;;;12.50;62.10;;;;;;5013459;28;20030;-67
2022/03/21 09:58:22;;;;;;;0.40;0.40;;;12.60;62.10;;;;;;5013712;28;20046;-67
2022/03/21 10:00:51;;;;;;;0.10;0.10;;;12.50;61.10;;;;;;5013220;28;20049;-67
2022/03/21 10:03:17;;;;;;;0.30;0.30;;;12.60;61.80;;;;;;5008972;28;20056;-67
2022/03/21 10:05:46;;;;;;;0.30;0.30;;;12.80;62.30;;;;;;5013658;28;20479;-68
2022/03/21 10:08:13;;;;;;;0.10;0.10;;;12.70;61.30;;;;;;5010190;28;20024;-73
2022/03/21 10:10:40;;;;;;;0.15;0.15;;;12.80;61.20;;;;;;5014211;28;20104;-68
2022/03/21 10:13:09;;;;;;;0.10;0.10;;;12.80;61.00;;;;;;5015022;28;20073;-70
2022/03/21 10:15:36;;;;;;;0.10;0.10;;;12.90;61.30;;;;;;5016367;28;20035;-68
2022/03/21 10:18:09;;;;;;;0.52;0.52;;;13.10;60.90;;;;;;5017934;28;20033;-67
2022/03/21 10:20:36;;;;;;;1.33;0.98;;;13.10;59.80;;;;;;5010290;28;20511;-68
2022/03/21 10:23:35;;;;;;;0.10;0.10;;;13.00;59.60;;;;;;5010195;28;20108;-68
2022/03/21 10:26:00;;;;;;;2.63;2.42;;;13.20;60.00;;;;;;5009301;28;20079;-66
2022/03/21 10:28:39;;;;;;;0.08;0.08;;;13.30;59.70;;;;;;5015803;28;20642;-66
2022/03/21 10:31:05;;;;;;;0.55;0.55;;;13.30;58.90;;;;;;5008019;28;20025;-67
2022/03/21 10:33:31;;;;;;;3.22;2.95;;;13.30;59.10;;;;;;5016612;28;20438;-69
2022/03/21 10:36:04;;;;;;;0.20;0.20;;;13.30;58.70;;;;;;5019493;28;20021;-69
2022/03/21 10:38:35;;;;;;;0.10;0.10;;;13.40;58.50;;;;;;5016459;28;20034;-69
2022/03/21 10:41:08;;;;;;;1.50;1.40;;;13.60;58.20;;;;;;5011521;28;20049;-66
2022/03/21 10:43:34;;;;;;;0.25;0.25;;;13.80;57.70;;;;;;5014210;28;20056;-68
2022/03/21 10:46:02;;;;;;;0.65;0.65;;;14.20;57.20;;;;;;5011977;28;20026;-68
2022/03/21 10:48:30;;;;;;;0.52;0.52;;;14.30;56.90;;;;;;5013539;28;20030;-68
2022/03/21 10:51:01;;;;;;;0.15;0.15;;;14.40;55.70;;;;;;5005728;28;20479;-66
2022/03/21 10:53:37;;;;;;;2.20;2.10;;;14.40;55.10;;;;;;5051888;22;20517;-67
2022/03/21 10:56:09;;;;;;;0.30;0.30;;;14.50;55.50;;;;;;5041914;28;20095;-67
2022/03/21 10:58:47;;;;;;;0.20;0.20;;;14.50;54.80;;;;;;5040144;28;20029;-66
2022/03/21 11:01:17;;;;;;;0.10;0.10;;;14.50;54.60;;;;;;5045454;28;20044;-68
2022/03/21 11:03:49;;;;;;;0.10;0.10;;;14.60;55.10;;;;;;5019986;28;20036;-67
2022/03/21 11:06:15;;;;;;;0.10;0.10;;;14.70;54.30;;;;;;5024349;28;20116;-68
2022/03/21 11:08:41;;;;;;;0.10;0.10;;;14.90;53.60;;;;;;5023501;28;20108;-67
2022/03/21 11:11:09;;;;;;;1.23;1.13;;;15.10;54.00;;;;;;5024695;28;20014;-67
2022/03/21 11:13:36;;;;;;;0.32;0.32;;;15.10;53.40;;;;;;5022229;28;20069;-67
2022/03/21 11:16:03;;;;;;;0.10;0.10;;;15.20;52.80;;;;;;5024013;28;20021;-69
2022/03/21 11:18:30;;;;;;;0.93;0.93;;;15.20;52.40;;;;;;5025327;28;20108;-67
2022/03/21 11:20:59;;;;;;;0.28;0.28;;;14.90;52.20;;;;;;5024600;28;20076;-67
2022/03/21 11:23:26;;;;;;;0.25;0.25;;;14.90;52.40;;;;;;5022143;28;20033;-70
2022/03/21 11:26:19;;;;;;;0.00;0.00;;;15.20;52.70;;;;;;5022884;28;20028;-66
2022/03/21 11:29:06;;;;;;;0.20;0.20;;;15.40;52.60;;;;;;5026069;28;20034;-68
2022/03/21 11:32:12;;;;;;;0.30;0.30;;;15.40;53.00;;;;;;5023872;28;20030;-68
2022/03/21 11:34:56;;;;;;;0.65;0.65;;;15.60;51.50;;;;;;5028159;28;20052;-67
2022/03/21 11:37:33;;;;;;;0.10;0.10;;;15.70;51.60;;;;;;5023727;28;20383;-65
2022/03/21 11:40:23;;;;;;;0.57;0.57;;;15.50;51.50;;;;;;5028882;28;20033;-66
2022/03/21 11:42:49;;;;;;;0.10;0.10;;;15.70;51.80;;;;;;5030408;28;20160;-67
2022/03/21 11:45:26;;;;;;;0.10;0.10;;;15.70;51.60;;;;;;5030941;28;20550;-67
2022/03/21 11:48:13;;;;;;;0.10;0.10;;;15.70;50.70;;;;;;5019253;28;20029;-67
2022/03/21 11:50:39;;;;;;;0.68;0.68;;;15.90;50.80;;;;;;5025741;28;20040;-67
2022/03/21 11:53:09;;;;;;;0.10;0.10;;;15.80;49.70;;;;;;5024742;28;20041;-68
2022/03/21 11:55:45;;;;;;;3.25;2.95;;;15.90;50.80;;;;;;5021804;28;20167;-67
2022/03/21 11:58:22;;;;;;;0.10;0.10;;;16.10;49.90;;;;;;5016691;28;20030;-66
2022/03/21 12:01:12;;;;;;;0.10;0.10;;;16.20;49.00;;;;;;5027350;28;20021;-68
2022/03/21 12:03:41;;;;;;;3.08;2.83;;;16.20;49.80;;;;;;5014985;28;20029;-67
2022/03/21 12:06:24;;;;;;;0.10;0.10;;;16.30;49.30;;;;;;5027145;28;20109;-68
2022/03/21 12:09:11;;;;;;;0.77;0.77;;;16.30;48.60;;;;;;5026432;28;20021;-70
2022/03/21 12:11:47;;;;;;;0.00;0.00;;;16.40;48.80;;;;;;5028196;28;20502;-67
2022/03/21 12:14:22;;;;;;;0.10;0.10;;;16.60;48.70;;;;;;5023797;28;20095;-67
2022/03/21 12:17:10;;;;;;;0.10;0.10;;;16.50;48.20;;;;;;5024208;28;20025;-67
2022/03/21 12:19:47;;;;;;;0.10;0.10;;;16.60;47.90;;;;;;5023856;28;20044;-67
2022/03/21 12:24:55;;;;;;;0.55;0.55;;;16.40;48.20;;;;;;5028417;28;20104;-69
2022/03/21 12:27:55;;;;;;;0.10;0.10;;;16.50;47.20;;;;;;5027132;28;20017;-66
2022/03/21 12:30:21;;;;;;;0.10;0.10;;;16.60;47.70;;;;;;5014588;28;20232;-66
2022/03/21 12:33:05;;;;;;;0.38;0.38;;;16.70;47.80;;;;;;5029055;28;20641;-66
2022/03/21 12:35:45;;;;;;;0.50;0.50;;;16.80;47.10;;;;;;5022988;28;20041;-67
2022/03/21 12:38:23;;;;;;;0.20;0.20;;;16.70;46.10;;;;;;5025258;28;20041;-69
2022/03/21 12:40:55;;;;;;;0.52;0.52;;;16.70;46.50;;;;;;5022120;28;20053;-68
2022/03/21 12:43:23;;;;;;;0.10;0.10;;;16.70;46.60;;;;;;5026093;28;20106;-66
2022/03/21 12:45:52;;;;;;;0.00;0.00;;;16.80;45.90;;;;;;5021121;28;20026;-67
2022/03/21 12:48:18;;;;;;;0.10;0.10;;;16.80;45.70;;;;;;5023259;28;20051;-67
2022/03/21 12:50:50;;;;;;;0.45;0.45;;;17.00;45.90;;;;;;5019912;28;20022;-66
2022/03/21 12:53:21;;;;;;;0.10;0.10;;;17.10;45.10;;;;;;5027809;28;20116;-68
2022/03/21 12:56:00;;;;;;;0.10;0.10;;;17.20;45.00;;;;;;5023205;28;20029;-68
2022/03/21 12:58:25;;;;;;;0.15;0.15;;;17.10;43.80;;;;;;5021727;28;20125;-67
2022/03/21 13:00:54;;;;;;;0.10;0.10;;;17.50;44.10;;;;;;5025754;28;20534;-67
2022/03/21 13:03:20;;;;;;;0.10;0.10;;;18.10;43.60;;;;;;5027067;28;20487;-66
2022/03/21 13:11:30;;;;;;;0.00;0.00;;;19.50;40.80;;;;;;5022848;28;20048;-70
2022/03/21 13:14:05;;;;;;;0.00;0.00;;;19.70;39.90;;;;;;5020195;28;20052;-68
2022/03/21 13:16:38;;;;;;;0.45;0.40;;;19.80;39.10;;;;;;5027064;28;20061;-68
2022/03/21 13:19:08;;;;;;;0.00;0.00;;;20.10;39.20;;;;;;5023802;28;20499;-69
2022/03/21 13:21:35;;;;;;;0.10;0.10;;;19.60;39.90;;;;;;5023229;28;20025;-67
2022/03/21 13:24:02;;;;;;;0.00;0.00;;;20.30;40.30;;;;;;5024831;28;20040;-66
2022/03/21 13:26:28;;;;;;;0.03;0.03;;;21.30;40.30;;;;;;5025758;28;20044;-67
2022/03/21 13:29:06;;;;;;;0.35;0.35;;;21.50;38.70;;;;;;5024777;28;20029;-68